Relevés horaires Koksijde (Belgique)


Relevés horaires à Koksijde - Mercredi 31 Mai 2023
Heure UTC1 Température [°C] Vent [km/h] Hum. [%] Pres.4 [hPa] Visi. [Km] Nébu. [octa] Préc.5 [mm] Cond.
2m. Res. Ros. Dir.2 Vit. Moy. Raf.3
23:00 12.1 10.7 10.7 NNE 13.0 -- 22.2 91 1024(0.6/3h) 7 -- -- --
22:00 12.1 10.5 10.9 NNE 14.8 -- 22.2 92 1023.8(0.5/3h) 8 -- -- --
21:00 12.3 10.6 11.0 N 16.7 -- 24.1 92 1023.6(0.5/3h) 9 -- -- --
20:00 12.6 10.9 11.2 NNE 16.7 -- 24.1 91 1023.3(0.0/3h) 11 -- -- --
19:00 13.1 11.8 11.3 NNE 14.8 -- 22.2 89 1023.2(-0.3/3h) 12 -- -- --
18:00 14.1 13 11.7 N 14.8 -- 24.1 85 1023.1(-0.7/3h) 12 -- -- --
17:00 15.3 14.5 12.0 N 14.8 -- 24.1 81 1023.2(-0.8/3h) 15 -- -- --
16:00 15.8 14.9 12.0 N 16.7 -- 24.1 78 1023.6(-0.7/3h) 16 -- -- --
15:00 16.5 15.8 12.2 N 16.7 -- 24.1 76 1023.7(-1.0/3h) 20 -- -- --
14:00 16.9 16.3 12.3 N 16.7 -- 24.1 74 1024.2(-0.9/3h) 17 1/8 -- --
13:00 16.5 15.8 12.2 NNE 16.7 -- 24.1 76 1024.4(-0.8/3h) 17 1/8 -- --
12:00 16.4 15.5 12.2 NNE 18.5 -- 24.1 76 1024.7(-0.7/3h) 17 2/8 -- --
11:00 15.9 15.1 12.2 NNE 16.7 -- 24.1 79 1025.2(-0.6/3h) 15 2/8 -- --
10:00 16.2 15.4 12.5 NNE 16.7 -- 24.1 79 1025.2(-0.4/3h) 20 7/8 -- --
09:00 15.5 14.9 12.0 NE 13.0 -- 20.4 80 1025.5(-0.1/3h) 20 7/8 -- --
08:00 14.1 13 11.5 NNE 14.8 -- 20.4 84 1025.7(0.2/3h) 20 7/8 -- --
07:00 14.2 13.3 11.3 NE 13.0 -- 18.5 83 1025.7(0.3/3h) 15 -- -- --
06:00 13.3 12.4 10.9 NE 11.1 -- 14.8 85 1025.7(0.2/3h) 13 3/8 -- --
05:00 12.6 11.8 10.6 NE 9.3 -- 13.0 88 1025.5(-0.3/3h) 13 3/8 -- --
04:00 12.0 11.1 10.1 NE 9.3 -- 14.8 88 1025.4(-0.6/3h) 14 -- -- --
03:00 11.8 10.9 9.9 NE 9.3 -- 14.8 88 1025.5(-0.7/3h) 13 -- -- --
02:00 11.8 10.9 10.2 NE 9.3 -- 13.0 90 1025.7(-0.5/3h) 13 -- -- --
01:00 11.9 11.4 10.3 NE 7.4 -- 14.8 90 1026(-0.3/3h) 13 -- -- --
00:00 12.3 11.5 10.2 NE 9.3 -- 22.2 87 1026.2(-0.1/3h) 16 -- -- --

1 Coordinated Universal Time. Actuellement il est 00:00 locale et 22:00 UTC.

2 Le vent souffle depuis la direction indiquée vers la direction oposée.

3 Les rafales max. sont disponible 40 min après l'heure du relevé.

4 Pour les stations d'altitude (plus de 600m) le géopotentiel du niveau le plus proche de la pression obligatoire est indiqué.

5 Les stations disposant d'un diffuseur peuvent indiquer "trace". Cela signifie que des précipitations ont touchés le sol mais que la quantité est inférieure à 0.1 mm.

Récapitulatif de la journée
Température [°C] Vent [km/h] Ensoleillement4 [h] Precipitations totale5 [mm] Pression [Hpa]
Min1 Max.2 Moy.3 Max. Min Max.
11.6 17.7 0 24.1 0 h 0 min 0 1023.1 1026.2

1 Température minimale relevée entre 18:00 UTC la veille et 18:00 UTC le jour donné.

2 Température maximale relevée entre 06:00 UTC le jour donné et 06:00 UTC le lendemain.

3 Vent moyen de la journée basé sur les relevés horaires.

4 Ensoleillement en heures relevé entre 06:00 UTC la veille et 06:00 UTC le jour donné.

5 Précipitations totales tombées entre 06:00 UTC la jour donné et 06:00 UTC le lendemain.

Graphiques horaires